METAR Data
IDs: Format: Raw Decoded Include TAF

Data at: 0451 UTC 26 Sep 2018

KEDN 260435Z AUTO 00000KT 10SM CLR 23/23 A3013 RMK AO2 T02250225
KEDN 260415Z AUTO 00000KT 10SM CLR 22/22 A3013 RMK AO2 T02230223
KEDN 260355Z AUTO 00000KT 10SM CLR 23/22 A3012 RMK AO2 T02250222
KEDN 260335Z AUTO 00000KT 10SM CLR 23/22 A3012 RMK AO2 T02260222
KEDN 260315Z AUTO 00000KT 10SM CLR 23/22 A3012 RMK AO2 T02250222
KEDN 260255Z AUTO 00000KT 10SM CLR 23/22 A3012 RMK AO2 T02260224
KEDN 260235Z AUTO 00000KT 10SM CLR 23/22 A3010 RMK AO2 T02260223
KEDN 260215Z AUTO 00000KT 10SM CLR 23/22 A3010 RMK AO2 T02270223
KEDN 260155Z AUTO 00000KT 10SM CLR 23/22 A3010 RMK AO2 T02280223
KEDN 260135Z AUTO 00000KT 10SM CLR 23/22 A3010 RMK AO2 T02290222
KEDN 260115Z AUTO 00000KT 10SM CLR 23/22 A3009 RMK AO2 T02300221
KEDN 260055Z AUTO 11003KT 10SM CLR 23/22 A3009 RMK AO2 T02300222
KEDN 260035Z AUTO 13003KT 10SM CLR 23/23 A3007 RMK AO2 LTG DSNT NE T02320225
KEDN 260015Z AUTO 00000KT 10SM CLR 23/23 A3007 RMK AO2 LTG DSNT NE T02330225
KEDN 252355Z AUTO 14003KT 10SM CLR 24/23 A3007 RMK AO2 LTG DSNT E 60003 T02360225 10312 20236
KEDN 252335Z AUTO 15003KT 10SM CLR 24/23 A3007 RMK AO2 LTG DSNT NE AND E T02400225
KEDN 252315Z AUTO 11005KT 10SM CLR 25/23 A3007 RMK AO2 LTG DSNT NE THRU S T02450226
KEDN 252255Z AUTO 12007KT 10SM CLR 25/23 A3007 RMK AO2 LTG DSNT S T02510232
KEDN 252235Z AUTO 14007KT 10SM CLR 26/24 A3006 RMK AO2 LTG DSNT S T02610237
KEDN 252215Z AUTO 14004KT 10SM CLR 27/24 A3007 RMK AO2 LTG DSNT SE THRU W T02670235
KEDN 252155Z AUTO 11004KT 10SM CLR 27/23 A3007 RMK AO2 LTG DSNT SW THRU N T02650231
KEDN 252135Z AUTO 00000KT 10SM CLR 27/23 A3006 RMK AO2 LTG DSNT SE AND SW T02650229
KEDN 252115Z AUTO 00000KT 10SM CLR 26/23 A3007 RMK AO2 LTG DSNT S THRU NW T02640226
KEDN 252055Z AUTO 00000KT 10SM CLR 26/23 A3006 RMK AO2 LTG DSNT SW THRU N 60003 T02610227
KEDN 252035Z AUTO 31003KT 10SM VCTS CLR 26/22 A3006 RMK AO2 LTG DSNT N AND W T02590223
KEDN 252015Z AUTO 30004KT 10SM VCTS CLR 26/22 A3006 RMK AO2 LTG DSNT ALQS T02600222
KEDN 251955Z AUTO 27006KT 10SM VCTS CLR 26/22 A3007 RMK AO2 LTG DSNT ALQS P0002 T02560224
KEDN 251935Z AUTO 27005KT 10SM VCTS SCT046 27/22 A3007 RMK AO2 LTG DSNT SE AND NW P0002 T02650223
KEDN 251915Z AUTO 26006KT 7SM -RA SCT037 BKN046 BKN060 26/24 A3007 RMK AO2 LTG DSNT SE AND NW P0002 T02590243
KEDN 251855Z AUTO 23008G14KT 200V260 10SM BKN037 BKN047 BKN065 28/24 A3008 RMK AO2 LTG DSNT NW THRU E T02790241
KEDN 251835Z AUTO 20006KT 10SM VCTS SCT033 BKN065 31/23 A3009 RMK AO2 LTG DSNT NE THRU SW T03050228
KEDN 251815Z AUTO 17008KT 10SM VCTS BKN033 31/23 A3009 RMK AO2 LTG DSNT W THRU E T03100232
KEDN 251755Z AUTO 16004KT 10SM VCTS CLR 31/24 A3009 RMK AO2 LTG DSNT NW THRU E T03060238 10308 20225
KEDN 251735Z AUTO 16004KT 10SM VCTS SCT024 SCT030 SCT043 30/24 A3010 RMK AO2 LTG DSNT NW THRU NE T03040240
KEDN 251715Z AUTO 09004KT 10SM SCT023 SCT031 SCT040 29/25 A3011 RMK AO2 LTG DSNT N AND NW T02900248
KEDN 251655Z AUTO 21003KT 10SM SCT020 SCT035 SCT045 29/24 A3012 RMK AO2 LTG DSNT NW T02890244
KEDN 251635Z AUTO 16003KT 10SM SCT017 SCT022 BKN041 29/25 A3012 RMK AO2 T02880251
KEDN 251615Z AUTO 17004KT 10SM SCT015 BKN020 OVC040 28/25 A3013 RMK AO2 LTG DSNT N AND NE T02800251
KEDN 251555Z AUTO 16005KT 10SM BKN013 OVC021 28/25 A3013 RMK AO2 LTG DSNT NE T02770252
KEDN 251535Z AUTO 14003KT 10SM BKN010 OVC016 28/26 A3013 RMK AO2 LTG DSNT NE T02750256
KEDN 251515Z AUTO 12004KT 10SM OVC008 27/26 A3013 RMK AO2 LTG DSNT NE T02710256
KEDN 251455Z AUTO 14004KT 10SM OVC008 26/25 A3013 RMK AO2 T02620251
KEDN 251435Z AUTO 13006KT 10SM OVC006 26/25 A3013 RMK AO2 T02590249
KEDN 251415Z AUTO 13004KT 10SM OVC006 25/25 A3012 RMK AO2 LTG DSNT NE T02520247
KEDN 251355Z AUTO 15005KT 10SM BKN006 BKN010 OVC016 25/24 A3012 RMK AO2 LTG DSNT NE T02500244
KEDN 251335Z AUTO 12006KT 10SM BKN008 OVC013 24/24 A3012 RMK AO2 T02420240
KEDN 251315Z AUTO 11004KT 10SM SCT005 BKN013 24/24 A3012 RMK AO2 T02360236
KEDN 251255Z AUTO 11004KT 10SM SCT005 SCT013 23/23 A3012 RMK AO2 LTG DSNT NE T02310231
KEDN 251235Z AUTO 10004KT 10SM BKN005 23/23 A3012 RMK AO2 T02300230
KEDN 251215Z AUTO 09004KT 10SM BKN007 23/23 A3011 RMK AO2 T02270227
KEDN 251155Z AUTO 09004KT 10SM SCT017 23/23 A3010 RMK AO2 70116 T02250225 10227 20223
KEDN 251135Z AUTO 09005KT 10SM SCT017 23/23 A3010 RMK AO2 LTG DSNT NE AND E T02250225
KEDN 251115Z AUTO 09003KT 10SM CLR 23/23 A3009 RMK AO2 LTG DSNT NE AND E T02250225
KEDN 251055Z AUTO 10005KT 10SM SCT018 23/23 A3009 RMK AO2 LTG DSNT NE T02250225
KEDN 251035Z AUTO 00000KT 10SM CLR 23/23 A3008 RMK AO2 LTG DSNT NE T02260226
KEDN 251015Z AUTO 10003KT 10SM CLR 23/23 A3007 RMK AO2 LTG DSNT NE T02260226
KEDN 250955Z AUTO 11004KT 10SM CLR 23/23 A3007 RMK AO2 LTG DSNT NE T02260226
KEDN 250935Z AUTO 11005KT 10SM CLR 23/23 A3007 RMK AO2 LTG DSNT NE AND SE T02260226
KEDN 250915Z AUTO 12005KT 10SM CLR 23/23 A3006 RMK AO2 LTG DSNT NE T02270227
KEDN 250855Z AUTO 10005KT 10SM CLR 23/23 A3006 RMK AO2 T02270227
KEDN 250835Z AUTO 10003KT 10SM CLR 23/23 A3006 RMK AO2 T02260226
KEDN 250815Z AUTO 10004KT 10SM CLR 23/23 A3007 RMK AO2 T02260226
KEDN 250755Z AUTO 10004KT 10SM CLR 23/23 A3007 RMK AO2 T02250225
KEDN 250735Z AUTO 08003KT 10SM CLR 22/22 A3007 RMK AO2 T02240224
KEDN 250715Z AUTO 00000KT 10SM CLR 23/23 A3007 RMK AO2 T02250225
KEDN 250655Z AUTO 10003KT 10SM CLR 23/23 A3008 RMK AO2 T02250225
KEDN 250635Z AUTO 00000KT 10SM CLR 23/23 A3008 RMK AO2 T02260226
KEDN 250615Z AUTO 00000KT 10SM CLR 23/23 A3008 RMK AO2 T02250225
KEDN 250555Z AUTO 00000KT 10SM CLR 23/23 A3008 RMK AO2 60001 T02260226 10230 20221
KEDN 250535Z AUTO 00000KT 10SM CLR 23/23 A3008 RMK AO2 T02260226
KEDN 250515Z AUTO 08003KT 10SM CLR 23/23 A3007 RMK AO2 T02250225
KEDN 250455Z AUTO 08003KT 10SM CLR 23/23 A3007 RMK AO2 T02250225 403220220
KEDN 250435Z AUTO 00000KT 2 1/2SM BR CLR 22/22 A3007 RMK AO2 VIS 1V5 T02210221
KEDN 250415Z AUTO 00000KT 2SM BR CLR 22/22 A3007 RMK AO2 VIS 1V5 T02230223
KEDN 250355Z AUTO 00000KT 10SM CLR 23/23 A3007 RMK AO2 T02260226
KEDN 250335Z AUTO 00000KT 10SM CLR 23/23 A3007 RMK AO2 T02250225
KEDN 250315Z AUTO 00000KT 10SM CLR 23/23 A3006 RMK AO2 T02260226
KEDN 250255Z AUTO 09004KT 10SM CLR 23/23 A3006 RMK AO2 60001 T02260226
KEDN 250235Z AUTO 09003KT 10SM CLR 23/23 A3005 RMK AO2 LTG DSNT N T02270227
KEDN 250215Z AUTO 00000KT 10SM CLR 23/23 A3005 RMK AO2 T02270227
KEDN 250155Z AUTO 11003KT 7SM CLR 23/23 A3005 RMK AO2 T02260226
KEDN 250135Z AUTO 00000KT 10SM CLR 23/23 A3005 RMK AO2 T02260226
KEDN 250115Z AUTO 00000KT 10SM CLR 23/23 A3004 RMK AO2 T02270227
KEDN 250055Z AUTO 00000KT 10SM CLR 23/23 A3004 RMK AO2 LTG DSNT NE T02270227
KEDN 250035Z AUTO 00000KT 10SM CLR 23/23 A3003 RMK AO2 LTG DSNT NE T02280228
KEDN 250015Z AUTO 00000KT 10SM CLR 23/23 A3003 RMK AO2 LTG DSNT NE T02280228
KEDN 242355Z AUTO 00000KT 10SM -DZ SCT060 SCT075 23/23 A3003 RMK AO2 LTG DSNT NE P0001 60115 T02260226 10322 20223
KEDN 242335Z AUTO 00000KT 10SM SCT028 SCT035 BKN060 23/23 A3003 RMK AO2 LTG DSNT NE P0001 T02260226
KEDN 242315Z AUTO 01003KT 10SM -RA SCT016 SCT023 BKN035 23/23 A3004 RMK AO2 LTG DSNT NE P0001 T02260226
KEDN 242255Z AUTO 00000KT 1SM TSRA BKN010 BKN017 OVC026 23/23 A3005 RMK AO2 VIS 1/4V5 LTG DSNT ALQS P0042 T02250225
KEDN 242235Z AUTO 00000KT 3SM -TSRA SCT030 BKN039 OVC044 23/23 A3005 RMK AO2 LTG DSNT ALQS P0007 T02250225
KEDN 242215Z AUTO 23005KT 10SM -TSRA BKN037 BKN055 OVC095 22/22 A3005 RMK AO2 LTG DSNT ALQS P0002 T02230223
KEDN 242155Z AUTO 31003KT 10SM -VCTSRA SCT055 BKN080 OVC095 22/22 A3004 RMK AO2 LTG DSNT N THRU S P0009 T02240224
KEDN 242135Z AUTO 00000KT 5SM TSRA SCT055 BKN080 OVC110 23/23 A3003 RMK AO2 LTG DSNT ALQS P0007 T02250225
KEDN 242115Z AUTO 28003KT 10SM RA SCT022 BKN039 OVC100 23/23 A3004 RMK AO2 LTG DSNT ALQS P0001 T02250225
KEDN 242055Z AUTO 30004KT 3SM VCTSRA SCT020 BKN038 OVC046 23/23 A3003 RMK AO2 LTG DSNT ALQS P0026 60062 T02250225
KEDN 242035Z AUTO 23007G14KT 7SM -TSRA SCT009 BKN033 OVC080 23/23 A3003 RMK AO2 LTG DSNT ALQS P0018 T02270227
KEDN 242015Z AUTO 00000KT 4SM TSRA SCT005 BKN049 OVC065 23/23 A3002 RMK AO2 LTG DSNT ALQS P0014 T02270227
KEDN 241955Z AUTO 15010G20KT 1SM +TSRA BKN007 OVC020 23/23 A3001 RMK AO2 LTG DSNT ALQS P0032 T02320229
KEDN 241935Z AUTO 16017G26KT 130V200 10SM TS BKN036 BKN047 BKN055 30/23 A3000 RMK AO2 LTG DSNT ALQS T02950228
KEDN 241915Z AUTO 13008KT 10SM VCTS SCT034 SCT047 SCT085 31/23 A3000 RMK AO2 LTG DSNT ALQS T03070225
KEDN 241855Z AUTO 13009G14KT 10SM VCTS SCT034 SCT045 SCT050 31/23 A3001 RMK AO2 LTG DSNT NW THRU SE T03130231
KEDN 241835Z AUTO 12011G16KT 10SM VCTS BKN034 BKN040 BKN047 32/23 A3002 RMK AO2 LTG DSNT NW THRU E T03180234
KEDN 241815Z AUTO 15006KT 10SM VCTS SCT034 SCT040 BKN090 30/24 A3003 RMK AO2 LTG DSNT NW THRU E T03020235
KEDN 241755Z AUTO 14007KT 10SM VCTS SCT032 SCT043 SCT060 31/24 A3004 RMK AO2 LTG DSNT NW THRU E T03130236 10313 20221
KEDN 241735Z AUTO 11007KT 090V190 10SM SCT028 SCT041 SCT090 31/24 A3004 RMK AO2 LTG DSNT E T03110237
KEDN 241715Z AUTO 11009KT 100V170 10SM SCT028 SCT042 31/24 A3005 RMK AO2 LTG DSNT N THRU E T03110239
KEDN 241655Z AUTO 14007KT 10SM SCT024 SCT031 BKN042 30/24 A3005 RMK AO2 LTG DSNT E T03000240